Time,TemperatureF,DewpointF,PressureIn,WindDirection,WindDirectionDegrees,WindSpeedMPH,WindSpeedGustMPH,Humidity,HourlyPrecipIn,Conditions,Clouds,dailyrainin,SoftwareType,DateUTC
2013-02-26 00:11:00,28.4,20.9,29.98,NE,45,1.1,-999.0,73,-99.99,,,0.00,Acu-Link.com,2013-02-26 05:11:00,
2013-02-26 00:27:00,29.1,21.5,29.96,East,90,0.0,-999.0,73,-99.99,,,0.00,Acu-Link.com,2013-02-26 05:27:00,
2013-02-26 00:42:00,29.1,21.5,29.95,WSW,247,0.0,-999.0,73,-99.99,,,0.00,Acu-Link.com,2013-02-26 05:42:00,
2013-02-26 00:57:00,29.1,21.9,29.96,ESE,112,0.0,-999.0,74,-99.99,,,0.00,Acu-Link.com,2013-02-26 05:57:00,
2013-02-26 01:12:00,28.9,22.3,29.96,WNW,292,0.0,-999.0,76,-99.99,,,0.00,Acu-Link.com,2013-02-26 06:12:00,
2013-02-26 01:27:00,28.8,22.2,29.96,South,180,0.0,-999.0,76,-99.99,,,0.00,Acu-Link.com,2013-02-26 06:27:00,
2013-02-26 01:42:00,28.8,22.2,29.97,South,180,0.0,-999.0,76,-99.99,,,0.00,Acu-Link.com,2013-02-26 06:42:00,
2013-02-26 01:57:00,28.9,22.3,29.95,NW,315,0.0,-999.0,76,-99.99,,,0.00,Acu-Link.com,2013-02-26 06:57:00,
2013-02-26 02:12:00,28.8,22.8,29.94,NE,45,0.0,-999.0,78,-99.99,,,0.00,Acu-Link.com,2013-02-26 07:12:00,
2013-02-26 02:27:00,29.5,22.3,29.92,East,90,0.0,-999.0,74,-99.99,,,0.00,Acu-Link.com,2013-02-26 07:27:00,
2013-02-26 02:42:00,28.9,22.0,29.91,ENE,67,0.0,-999.0,75,-99.99,,,0.00,Acu-Link.com,2013-02-26 07:42:00,
2013-02-26 02:58:00,29.5,22.9,29.92,ESE,112,0.0,-999.0,76,-99.99,,,0.00,Acu-Link.com,2013-02-26 07:58:00,
2013-02-26 03:13:00,30.0,23.1,29.93,SE,135,0.0,-999.0,75,-99.99,,,0.00,Acu-Link.com,2013-02-26 08:13:00,
2013-02-26 03:28:00,30.7,23.4,29.92,NE,45,0.0,-999.0,74,-99.99,,,0.00,Acu-Link.com,2013-02-26 08:28:00,
2013-02-26 03:43:00,31.3,24.0,29.91,NE,45,1.7,-999.0,74,-99.99,,,0.00,Acu-Link.com,2013-02-26 08:43:00,
2013-02-26 07:05:00,34.7,23.0,29.89,SW,225,0.0,-999.0,62,-99.99,,,0.00,Acu-Link.com,2013-02-26 12:05:00,
2013-02-26 07:20:00,34.7,23.4,29.88,ESE,112,2.2,-999.0,63,-99.99,,,0.00,Acu-Link.com,2013-02-26 12:20:00,
2013-02-26 07:35:00,34.9,24.0,29.88,West,270,0.0,-999.0,64,-99.99,,,0.00,Acu-Link.com,2013-02-26 12:35:00,
2013-02-26 07:50:00,35.1,24.2,29.88,WSW,247,3.2,-999.0,64,-99.99,,,0.00,Acu-Link.com,2013-02-26 12:50:00,
2013-02-26 08:05:00,35.2,24.3,29.86,NW,315,0.0,-999.0,64,-99.99,,,0.00,Acu-Link.com,2013-02-26 13:05:00,
2013-02-26 08:20:00,35.2,24.3,29.87,East,90,2.2,-999.0,64,-99.99,,,0.00,Acu-Link.com,2013-02-26 13:20:00,
2013-02-26 08:35:00,34.9,26.8,29.87,WSW,247,0.0,-999.0,72,-99.99,,,0.00,Acu-Link.com,2013-02-26 13:35:00,
2013-02-26 08:50:00,34.0,28.8,29.86,SE,135,3.2,-999.0,81,-99.99,,,0.01,Acu-Link.com,2013-02-26 13:50:00,
2013-02-26 09:05:00,33.6,29.6,29.85,West,270,2.7,-999.0,85,-99.99,,,0.03,Acu-Link.com,2013-02-26 14:05:00,
2013-02-26 09:21:00,33.6,33.1,29.84,NNE,22,1.7,-999.0,98,-99.99,,,0.04,Acu-Link.com,2013-02-26 14:21:00,
2013-02-26 09:36:00,33.4,32.9,29.84,NW,315,0.0,-999.0,98,-99.99,,,0.05,Acu-Link.com,2013-02-26 14:36:00,
2013-02-26 09:51:00,33.4,32.9,29.82,WSW,247,0.0,-999.0,98,-99.99,,,0.07,Acu-Link.com,2013-02-26 14:51:00,
2013-02-26 10:06:00,33.6,33.1,29.81,NNW,337,0.0,-999.0,98,-99.99,,,0.08,Acu-Link.com,2013-02-26 15:06:00,
2013-02-26 10:21:00,33.6,33.1,29.79,NE,45,0.0,-999.0,98,-99.99,,,0.15,Acu-Link.com,2013-02-26 15:21:00,
2013-02-26 10:36:00,33.8,33.3,29.79,WSW,247,0.0,-999.0,98,-99.99,,,0.18,Acu-Link.com,2013-02-26 15:36:00,
2013-02-26 10:51:00,34.2,33.7,29.78,WSW,247,1.1,-999.0,98,-99.99,,,0.20,Acu-Link.com,2013-02-26 15:51:00,
2013-02-26 11:06:00,34.9,34.4,29.77,SSW,202,2.2,-999.0,98,-99.99,,,0.22,Acu-Link.com,2013-02-26 16:06:00,
2013-02-26 11:21:00,36.0,35.5,29.75,NE,45,1.7,-999.0,98,-99.99,,,0.25,Acu-Link.com,2013-02-26 16:21:00,
2013-02-26 11:37:00,36.5,36.0,29.73,East,90,3.2,-999.0,98,-99.99,,,0.27,Acu-Link.com,2013-02-26 16:37:00,
2013-02-26 11:52:00,36.5,36.0,29.69,WSW,247,3.7,-999.0,98,-99.99,,,0.28,Acu-Link.com,2013-02-26 16:52:00,
2013-02-26 12:07:00,36.9,36.4,29.68,West,270,0.0,-999.0,98,-99.99,,,0.31,Acu-Link.com,2013-02-26 17:07:00,
2013-02-26 12:22:00,35.8,35.3,29.67,SSE,157,2.2,-999.0,98,-99.99,,,0.40,Acu-Link.com,2013-02-26 17:22:00,
2013-02-26 12:37:00,34.9,34.4,29.67,WSW,247,3.2,-999.0,98,-99.99,,,0.45,Acu-Link.com,2013-02-26 17:37:00,
2013-02-26 12:52:00,34.9,34.4,29.67,ENE,67,1.7,-999.0,98,-99.99,,,0.48,Acu-Link.com,2013-02-26 17:52:00,
2013-02-26 13:07:00,35.1,34.6,29.66,SSW,202,2.7,-999.0,98,-99.99,,,0.51,Acu-Link.com,2013-02-26 18:07:00,
2013-02-26 13:22:00,35.6,35.1,29.64,WNW,292,3.2,-999.0,98,-99.99,,,0.57,Acu-Link.com,2013-02-26 18:22:00,
2013-02-26 13:37:00,36.1,35.6,29.61,East,90,1.7,-999.0,98,-99.99,,,0.65,Acu-Link.com,2013-02-26 18:37:00,
2013-02-26 13:53:00,37.9,37.4,29.58,ENE,67,0.0,-999.0,98,-99.99,,,0.67,Acu-Link.com,2013-02-26 18:53:00,
2013-02-26 14:08:00,39.6,39.1,29.57,ENE,67,2.2,-999.0,98,-99.99,,,0.68,Acu-Link.com,2013-02-26 19:08:00,
2013-02-26 14:23:00,39.7,39.2,29.56,NNW,337,2.7,-999.0,98,-99.99,,,0.71,Acu-Link.com,2013-02-26 19:23:00,
2013-02-26 14:38:00,39.7,39.2,29.55,West,270,0.0,-999.0,98,-99.99,,,0.76,Acu-Link.com,2013-02-26 19:38:00,
2013-02-26 14:53:00,39.9,39.4,29.54,ENE,67,2.7,-999.0,98,-99.99,,,0.78,Acu-Link.com,2013-02-26 19:53:00,
2013-02-26 15:08:00,39.9,39.4,29.53,West,270,3.2,-999.0,98,-99.99,,,0.79,Acu-Link.com,2013-02-26 20:08:00,
2013-02-26 15:23:00,39.9,39.4,29.50,North,0,3.2,-999.0,98,-99.99,,,0.81,Acu-Link.com,2013-02-26 20:23:00,
2013-02-26 15:38:00,39.9,39.4,29.49,WSW,247,4.2,-999.0,98,-99.99,,,0.84,Acu-Link.com,2013-02-26 20:38:00,
2013-02-26 15:53:00,39.9,39.4,29.46,West,270,0.0,-999.0,98,-99.99,,,0.93,Acu-Link.com,2013-02-26 20:53:00,
2013-02-26 16:09:00,40.3,39.8,29.45,SSE,157,2.7,-999.0,98,-99.99,,,0.97,Acu-Link.com,2013-02-26 21:09:00,
2013-02-26 16:24:00,40.3,39.8,29.45,West,270,0.0,-999.0,98,-99.99,,,1.00,Acu-Link.com,2013-02-26 21:24:00,
2013-02-26 16:39:00,40.3,39.8,29.47,SW,225,0.0,-999.0,98,-99.99,,,1.03,Acu-Link.com,2013-02-26 21:39:00,
2013-02-26 16:54:00,40.3,39.8,29.47,NW,315,2.7,-999.0,98,-99.99,,,1.19,Acu-Link.com,2013-02-26 21:54:00,
2013-02-26 17:09:00,39.7,39.2,29.48,WSW,247,2.2,-999.0,98,-99.99,,,1.22,Acu-Link.com,2013-02-26 22:09:00,
2013-02-26 17:24:00,39.7,39.2,29.46,NNE,22,1.7,-999.0,98,-99.99,,,1.24,Acu-Link.com,2013-02-26 22:24:00,
2013-02-26 17:39:00,39.6,39.1,29.43,NW,315,0.0,-999.0,98,-99.99,,,1.25,Acu-Link.com,2013-02-26 22:39:00,
2013-02-26 17:54:00,39.6,39.1,29.41,West,270,1.7,-999.0,98,-99.99,,,1.25,Acu-Link.com,2013-02-26 22:54:00,
2013-02-26 18:09:00,39.6,39.1,29.42,ESE,112,3.7,-999.0,98,-99.99,,,1.25,Acu-Link.com,2013-02-26 23:09:00,
2013-02-26 18:25:00,39.6,39.1,29.42,NNW,337,0.0,-999.0,98,-99.99,,,1.26,Acu-Link.com,2013-02-26 23:25:00,
2013-02-26 18:40:00,39.6,39.1,29.42,NW,315,0.0,-999.0,98,-99.99,,,1.26,Acu-Link.com,2013-02-26 23:40:00,
2013-02-26 18:55:00,39.6,39.1,29.42,East,90,0.0,-999.0,98,-99.99,,,1.26,Acu-Link.com,2013-02-26 23:55:00,
2013-02-26 19:10:00,39.6,39.1,29.44,SW,225,0.0,-999.0,98,-99.99,,,1.27,Acu-Link.com,2013-02-27 00:10:00,
2013-02-26 19:25:00,39.6,39.1,29.44,SW,225,0.0,-999.0,98,-99.99,,,1.27,Acu-Link.com,2013-02-27 00:25:00,
2013-02-26 19:40:00,39.4,38.9,29.42,East,90,0.0,-999.0,98,-99.99,,,1.27,Acu-Link.com,2013-02-27 00:40:00,
2013-02-26 19:55:00,39.4,38.9,29.41,East,90,1.1,-999.0,98,-99.99,,,1.28,Acu-Link.com,2013-02-27 00:55:00,
2013-02-26 20:10:00,39.4,38.9,29.41,ENE,67,0.0,-999.0,98,-99.99,,,1.29,Acu-Link.com,2013-02-27 01:10:00,
2013-02-26 20:25:00,39.4,38.9,29.44,WSW,247,2.2,-999.0,98,-99.99,,,1.29,Acu-Link.com,2013-02-27 01:25:00,
2013-02-26 20:40:00,39.6,39.1,29.44,ENE,67,0.0,-999.0,98,-99.99,,,1.29,Acu-Link.com,2013-02-27 01:40:00,
2013-02-26 20:56:00,39.6,39.1,29.43,ESE,112,1.7,-999.0,98,-99.99,,,1.29,Acu-Link.com,2013-02-27 01:56:00,
2013-02-26 21:26:00,39.6,39.1,29.44,SSE,157,0.0,-999.0,98,-99.99,,,1.29,Acu-Link.com,2013-02-27 02:26:00,
2013-02-26 21:41:00,39.6,39.1,29.44,ENE,67,0.0,-999.0,98,-99.99,,,1.29,Acu-Link.com,2013-02-27 02:41:00,
2013-02-26 21:56:00,39.6,39.1,29.44,NE,45,0.0,-999.0,98,-99.99,,,1.29,Acu-Link.com,2013-02-27 02:56:00,
2013-02-26 22:11:00,39.6,39.1,29.44,WSW,247,0.0,-999.0,98,-99.99,,,1.29,Acu-Link.com,2013-02-27 03:11:00,
2013-02-26 22:26:00,39.6,39.1,29.44,East,90,0.0,-999.0,98,-99.99,,,1.29,Acu-Link.com,2013-02-27 03:26:00,
2013-02-26 22:41:00,39.6,39.1,29.44,NW,315,2.2,-999.0,98,-99.99,,,1.29,Acu-Link.com,2013-02-27 03:41:00,
2013-02-26 22:56:00,39.7,39.2,29.45,ESE,112,0.0,-999.0,98,-99.99,,,1.29,Acu-Link.com,2013-02-27 03:56:00,
2013-02-26 23:12:00,39.7,39.2,29.44,SE,135,0.0,-999.0,98,-99.99,,,1.29,Acu-Link.com,2013-02-27 04:12:00,
2013-02-26 23:27:00,39.7,39.2,29.40,NE,45,0.0,-999.0,98,-99.99,,,1.29,Acu-Link.com,2013-02-27 04:27:00,
2013-02-26 23:42:00,39.7,39.2,29.40,NW,315,0.0,-999.0,98,-99.99,,,1.29,Acu-Link.com,2013-02-27 04:42:00,
2013-02-26 23:57:00,39.7,39.2,29.41,WNW,292,0.0,-999.0,98,-99.99,,,1.29,Acu-Link.com,2013-02-27 04:57:00,